Huvudsida
METAR-TAF:

METAR-TAF

Flygplatser :

Tivats flygplats

Tivat, Montenegro

latitud: 42-24N, longitud: 018-44E, höjd: 5 m

Aktuellt väderrapport

Denna rapport gjordes för 22 minuter sedan, klockan 14:30 UTC
Vind 3 kt varierande vindriktning
Temperatur 32°C
Fuktighet 43%
Tryck 1017 hPa
Sikt 10 km eller mer
Få moln på en höjd av 5000 ft

METAR: LYTV 261430Z VRB03KT 9999 FEW050 32/18 Q1017 NOSIG

Tid: 16:52 (14:52 UTC)

Väderprognos

Denna rapport gjordes för 3 timmar och 52 minuter sedan, klockan 11:00 UTC
Prognos gäller från 26 kl. 12 UTC till 27 kl. 12 UTC
Vind 9 kt från sydväst
Sikt 10 km eller mer
Få moln på en höjd av 5000 ft
Blir
från 26 kl. 18 UTC till 26 kl. 20 UTC
Vind 15 kt från nord/nordost
Temporärt
från 26 kl. 21 UTC till 27 kl. 06 UTC
Vind 15 kt från nord/nordost i byarna ända upp till 25 kt

TAF: LYTV 261100Z 2612/2712 23009KT 9999 FEW050 TX36/2613Z TN25/2703Z BECMG 2618/2620 03015KT TEMPO 2621/2706 03015G25KT

Aktuella väderrapporter och prognoser från 4000 flygplatser (METAR- och TAF-rapporter).

De tillgängliga stationerna syns som gula och röda prickar på kartan.

För musen över prickarna för att se namnen på stationerna.

Klicka sedan för att få väderrapporter och prognoser.

För att ändra kartan: Klicka på de gröna knapparna med ett svart kors på för att zooma in; den gröna knappen med ett streck på för att zooma ut; eller på de gröna pilarna för angränsande kartor.


METAR-TAF: